Decoded Metar for KGFL (GLENS FALLS in NY, USA) (IATA:GFL) | Meteo·Mobile Aviation Weather
aviador You're here:

KGFL Decoded Metar

GLENS FALLS in NY, USA
Report Time2018-09-20 08:53:00
UTC Time2018-09-20 09:18:24
Flight Rules vfr VFR
Wind050° at 03 kt
W.Decomp.*RWY 12: 1.7 kt HW 2.5 kt LCW
RWY 01: 1.8 kt HW 2.4 kt RCW
W.Rank050° ranks 15
Current wind is below 050° avg. (6.7)
Visibility9999 m
Phenomena:N/A
Clouds:Overcast 047 Hf
Expected CloudBase > 800 ft AGL from Temp-Dew spread
Ceiling4,700 ft
Temp13°C (ISA -1)
Dew Point11°C (88% RH)
AAT12.3°C
QNH1021 hPa
Density Alt89 ft
Elevation338 ft
Report Wrong Elevation
Raw Report
KGFL 200853Z AUTO 05003KT 10SM OVC047 13/11 A3015 RMK AO2 SLP209
T01330111 58001=

Extra information for KGFL:More info

Metar Taf Metar & Taf Last 4 Metars F.Rules Stats Wind Profile Meteogram Temp Stats Airport Information Weather charts Add Link Nearby VenuesMetar ALERT Operation Metar Decoded Social comments

AIRNAV info for KGFL